Time;durP1;ratioP1;P1;durP2;ratioP2;P2;SDS_P1;SDS_P2;PMS_P1;PMS_P2;Temp;Humidity;BMP_temperature;BMP_pressure;BME280_temperature;BME280_humidity;BME280_pressure;Samples;Min_cycle;Max_cycle;Signal;HPM_P1;HPM_P2
2022/05/06 00:01:27;;;;;;;;;;;14.80;83.10;;;;;;5082471;28;20139;-76
2022/05/06 00:03:53;;;;;;;;;;;14.70;83.50;;;;;;5065470;28;20206;-77
2022/05/06 00:06:20;;;;;;;;;;;14.80;82.70;;;;;;5048643;28;20196;-77
2022/05/06 00:08:46;;;;;;;;;;;14.70;82.40;;;;;;5065144;28;19909;-75
2022/05/06 00:11:12;;;;;;;;;;;14.80;82.50;;;;;;5064524;28;19946;-75
2022/05/06 00:13:38;;;;;;;;;;;14.80;82.10;;;;;;5082947;28;19940;-75
2022/05/06 00:16:03;;;;;;;;;;;14.80;82.00;;;;;;5082929;28;20247;-75
2022/05/06 00:18:33;;;;;;;;;;;14.80;81.70;;;;;;5082747;28;19915;-75
2022/05/06 00:20:58;;;;;;;;;;;14.80;81.70;;;;;;5064495;28;19912;-75
2022/05/06 00:23:24;;;;;;;;;;;14.80;81.70;;;;;;5082511;28;19915;-75
2022/05/06 00:25:50;;;;;;;;;;;14.80;81.80;;;;;;5081338;28;19912;-77
2022/05/06 00:28:16;;;;;;;;;;;14.80;81.90;;;;;;5063704;28;19908;-75
2022/05/06 00:30:42;;;;;;;;;;;14.80;82.10;;;;;;5063740;28;19908;-74
2022/05/06 00:33:09;;;;;;;;;;;14.80;82.60;;;;;;5082507;28;19916;-74
2022/05/06 00:35:38;;;;;;;;;;;14.80;83.00;;;;;;5064949;28;19922;-74
2022/05/06 00:38:04;;;;;;;;;;;14.70;83.30;;;;;;5064341;28;19913;-74
2022/05/06 00:40:30;;;;;;;;;;;14.70;83.10;;;;;;5081562;28;20200;-75
2022/05/06 00:42:56;;;;;;;;;;;14.70;83.50;;;;;;5081863;28;19938;-75
2022/05/06 00:45:23;;;;;;;;;;;14.70;83.70;;;;;;5064464;28;19996;-75
2022/05/06 00:47:49;;;;;;;;;;;14.70;83.60;;;;;;5082288;28;19915;-75
2022/05/06 00:50:15;;;;;;;;;;;14.60;83.80;;;;;;5047769;28;19908;-75
2022/05/06 00:52:41;;;;;;;;;;;14.60;83.70;;;;;;5063820;28;19944;-75
2022/05/06 00:55:08;;;;;;;;;;;14.50;83.70;;;;;;5064254;28;20183;-75
2022/05/06 00:57:34;;;;;;;;;;;14.60;83.60;;;;;;5047686;28;20473;-75
2022/05/06 01:00:19;;;;;;;;;;;14.50;83.60;;;;;;5027729;28;19909;-76
2022/05/06 01:02:45;;;;;;;;;;;14.50;84.10;;;;;;5046301;28;20108;-75
2022/05/06 01:05:12;;;;;;;;;;;14.40;84.10;;;;;;5044490;28;20020;-75
2022/05/06 01:07:37;;;;;;;;;;;14.40;84.30;;;;;;5044387;28;19908;-75
2022/05/06 01:10:04;;;;;;;;;;;14.40;84.30;;;;;;5027494;28;20156;-75
2022/05/06 01:12:29;;;;;;;;;;;14.40;84.10;;;;;;5061248;28;19947;-75
2022/05/06 01:14:55;;;;;;;;;;;14.40;84.10;;;;;;5044083;28;19909;-75
2022/05/06 01:17:22;;;;;;;;;;;14.40;83.80;;;;;;5043910;28;20227;-75
2022/05/06 01:19:47;;;;;;;;;;;14.40;83.80;;;;;;5061671;28;19913;-75
2022/05/06 01:22:14;;;;;;;;;;;14.30;83.40;;;;;;5061081;28;19909;-75
2022/05/06 01:24:40;;;;;;;;;;;14.30;83.10;;;;;;5058651;28;19909;-75
2022/05/06 01:27:14;;;;;;;;;;;14.30;83.20;;;;;;5063997;28;20069;-76
2022/05/06 01:29:40;;;;;;;;;;;14.30;83.20;;;;;;5047856;28;19912;-75
2022/05/06 01:32:06;;;;;;;;;;;14.20;82.90;;;;;;5063198;28;20196;-75
2022/05/06 01:34:34;;;;;;;;;;;14.20;83.20;;;;;;5063915;28;19908;-75
2022/05/06 01:37:03;;;;;;;;;;;14.20;83.10;;;;;;5064065;28;20188;-74
2022/05/06 01:39:33;;;;;;;;;;;14.10;83.10;;;;;;5063613;28;19909;-74
2022/05/06 01:42:01;;;;;;;;;;;14.10;83.10;;;;;;5080794;28;19947;-74
2022/05/06 01:44:28;;;;;;;;;;;14.10;82.60;;;;;;5047644;28;19924;-75
2022/05/06 01:46:54;;;;;;;;;;;14.10;82.30;;;;;;5063996;28;19952;-75
2022/05/06 01:49:19;;;;;;;;;;;14.00;82.00;;;;;;5047187;28;19909;-75
2022/05/06 01:51:45;;;;;;;;;;;14.00;81.70;;;;;;5063130;28;20147;-75
2022/05/06 01:54:11;;;;;;;;;;;14.00;81.20;;;;;;5066091;28;19909;-75
2022/05/06 01:56:36;;;;;;;;;;;14.00;80.80;;;;;;5067592;28;19958;-75
2022/05/06 01:59:02;;;;;;;;;;;14.00;80.70;;;;;;5067761;28;20138;-75
2022/05/06 02:01:29;;;;;;;;;;;13.90;80.70;;;;;;5085297;28;19912;-75
2022/05/06 02:06:39;;;;;;;;;;;13.90;80.40;;;;;;5085599;28;20250;-75
2022/05/06 02:09:05;;;;;;;;;;;13.90;80.20;;;;;;5067548;28;19927;-75
2022/05/06 02:11:31;;;;;;;;;;;13.80;80.20;;;;;;5084926;28;20115;-75
2022/05/06 02:13:56;;;;;;;;;;;13.80;80.30;;;;;;5085518;28;19914;-74
2022/05/06 02:16:22;;;;;;;;;;;13.80;80.10;;;;;;5085524;28;19944;-75
2022/05/06 02:18:48;;;;;;;;;;;13.80;80.20;;;;;;5085184;28;19972;-74
2022/05/06 02:21:13;;;;;;;;;;;13.70;79.70;;;;;;5132888;22;19920;-72
2022/05/06 02:23:39;;;;;;;;;;;13.70;79.70;;;;;;5106327;28;20258;-73
2022/05/06 02:26:05;;;;;;;;;;;13.70;79.50;;;;;;5106254;28;19997;-73
2022/05/06 02:28:31;;;;;;;;;;;13.60;79.40;;;;;;5088401;28;20160;-73
2022/05/06 02:33:41;;;;;;;;;;;13.60;79.30;;;;;;5106211;28;19915;-74
2022/05/06 02:36:06;;;;;;;;;;;13.60;79.60;;;;;;5104684;28;19909;-73
2022/05/06 02:38:32;;;;;;;;;;;13.60;79.90;;;;;;5105499;28;19965;-72
2022/05/06 02:40:59;;;;;;;;;;;13.50;80.30;;;;;;5105232;28;19908;-73
2022/05/06 02:43:25;;;;;;;;;;;13.50;79.70;;;;;;5088079;28;20262;-73
2022/05/06 02:45:50;;;;;;;;;;;13.50;79.70;;;;;;5106203;28;19946;-73
2022/05/06 02:48:16;;;;;;;;;;;13.50;79.50;;;;;;5088142;28;20218;-73
2022/05/06 02:50:42;;;;;;;;;;;13.40;79.20;;;;;;5104876;28;19939;-73
2022/05/06 02:53:08;;;;;;;;;;;13.40;79.40;;;;;;5087767;28;19908;-72
2022/05/06 02:55:34;;;;;;;;;;;13.40;79.30;;;;;;5105814;28;20080;-72
2022/05/06 02:58:00;;;;;;;;;;;13.40;79.20;;;;;;5105675;28;19912;-71
2022/05/06 03:00:26;;;;;;;;;;;13.40;79.30;;;;;;5105525;28;19915;-73
2022/05/06 03:02:52;;;;;;;;;;;13.40;79.30;;;;;;5087070;28;19917;-72
2022/05/06 03:05:18;;;;;;;;;;;13.40;79.30;;;;;;5104109;28;19911;-72
2022/05/06 03:07:43;;;;;;;;;;;13.30;79.00;;;;;;5098436;28;20230;-73
2022/05/06 03:10:09;;;;;;;;;;;13.30;79.20;;;;;;5105585;28;19979;-72
2022/05/06 03:12:36;;;;;;;;;;;13.30;79.20;;;;;;5087065;28;19908;-72
2022/05/06 03:15:05;;;;;;;;;;;13.30;79.40;;;;;;5087750;28;19908;-72
2022/05/06 03:17:31;;;;;;;;;;;13.30;79.40;;;;;;5088118;28;20111;-73
2022/05/06 03:19:58;;;;;;;;;;;13.30;79.10;;;;;;5087160;28;19985;-73
2022/05/06 03:22:23;;;;;;;;;;;13.30;79.20;;;;;;5086885;28;19908;-73
2022/05/06 03:24:49;;;;;;;;;;;13.30;79.00;;;;;;5105524;28;20309;-72
2022/05/06 03:30:00;;;;;;;;;;;13.30;78.90;;;;;;5105190;28;19923;-72
2022/05/06 03:32:27;;;;;;;;;;;13.20;79.00;;;;;;5069833;28;19983;-72
2022/05/06 03:34:53;;;;;;;;;;;13.30;79.50;;;;;;5087299;28;19915;-72
2022/05/06 03:37:18;;;;;;;;;;;13.20;79.20;;;;;;5087062;28;19943;-72
2022/05/06 03:39:44;;;;;;;;;;;13.20;79.20;;;;;;5086790;28;19967;-72
2022/05/06 03:42:10;;;;;;;;;;;13.20;79.20;;;;;;5104228;28;19908;-72
2022/05/06 03:44:36;;;;;;;;;;;13.20;79.00;;;;;;5086954;28;19980;-71
2022/05/06 03:47:02;;;;;;;;;;;13.20;79.10;;;;;;5104891;28;19939;-72
2022/05/06 03:49:27;;;;;;;;;;;13.20;79.40;;;;;;5104755;28;20204;-72
2022/05/06 03:51:53;;;;;;;;;;;13.20;79.50;;;;;;5099912;28;19909;-72
2022/05/06 03:54:19;;;;;;;;;;;13.20;79.70;;;;;;5109467;28;19915;-72
2022/05/06 03:56:44;;;;;;;;;;;13.20;79.60;;;;;;5103487;28;19983;-71
2022/05/06 03:59:10;;;;;;;;;;;13.20;79.80;;;;;;5104662;28;19953;-73
2022/05/06 04:01:36;;;;;;;;;;;13.10;79.90;;;;;;5103901;28;19908;-73
2022/05/06 04:04:02;;;;;;;;;;;13.10;80.10;;;;;;5086444;28;20212;-73
2022/05/06 04:06:28;;;;;;;;;;;13.10;80.50;;;;;;5103247;28;19915;-73
2022/05/06 04:08:54;;;;;;;;;;;13.10;80.80;;;;;;5103353;28;20188;-73
2022/05/06 04:11:20;;;;;;;;;;;13.10;80.90;;;;;;5102440;28;19915;-73
2022/05/06 04:13:47;;;;;;;;;;;13.10;81.10;;;;;;5103240;28;19945;-73
2022/05/06 04:16:14;;;;;;;;;;;13.10;81.20;;;;;;5102298;28;19912;-73
2022/05/06 04:18:40;;;;;;;;;;;13.10;81.20;;;;;;5103138;28;19908;-73
2022/05/06 04:23:50;;;;;;;;;;;13.10;80.70;;;;;;5074653;28;19952;-72
2022/05/06 04:26:16;;;;;;;;;;;13.10;80.50;;;;;;5069342;28;20203;-71
2022/05/06 04:28:43;;;;;;;;;;;13.10;80.90;;;;;;5102915;28;19949;-73
2022/05/06 04:31:09;;;;;;;;;;;13.20;80.80;;;;;;5085304;28;19939;-72
2022/05/06 04:33:37;;;;;;;;;;;13.20;80.60;;;;;;5085639;28;19908;-73
2022/05/06 04:36:04;;;;;;;;;;;13.20;79.90;;;;;;5047722;28;19908;-74
2022/05/06 04:38:29;;;;;;;;;;;13.20;79.80;;;;;;5082362;28;19931;-74
2022/05/06 04:40:56;;;;;;;;;;;13.20;79.60;;;;;;5064997;28;19916;-74
2022/05/06 04:43:22;;;;;;;;;;;13.20;79.70;;;;;;5065658;28;19969;-74
2022/05/06 04:45:48;;;;;;;;;;;13.20;79.80;;;;;;5094719;28;19937;-74
2022/05/06 04:48:14;;;;;;;;;;;13.30;79.50;;;;;;5095124;28;20118;-73
2022/05/06 04:50:40;;;;;;;;;;;13.30;79.50;;;;;;5097293;28;19920;-73
2022/05/06 04:53:08;;;;;;;;;;;13.30;79.30;;;;;;5092146;28;20022;-73
2022/05/06 04:55:35;;;;;;;;;;;13.30;79.30;;;;;;5080228;28;19983;-73
2022/05/06 04:58:02;;;;;;;;;;;13.30;79.40;;;;;;5101245;28;19959;-73
2022/05/06 05:00:28;;;;;;;;;;;13.30;79.60;;;;;;5091255;28;19908;-74
2022/05/06 05:02:54;;;;;;;;;;;13.40;80.10;;;;;;5067501;28;19992;-73
2022/05/06 05:05:20;;;;;;;;;;;13.40;80.40;;;;;;5069462;28;20084;-74
2022/05/06 05:07:46;;;;;;;;;;;13.30;80.20;;;;;;5081984;28;19940;-74
2022/05/06 05:10:11;;;;;;;;;;;13.30;80.40;;;;;;5081547;28;20102;-75
2022/05/06 05:12:39;;;;;;;;;;;13.40;80.50;;;;;;5076257;28;19908;-75
2022/05/06 05:15:06;;;;;;;;;;;13.40;80.10;;;;;;5085497;28;19915;-77
2022/05/06 05:17:31;;;;;;;;;;;13.40;80.80;;;;;;5085509;28;19912;-74
2022/05/06 05:19:57;;;;;;;;;;;13.50;81.30;;;;;;5103158;28;19919;-72
2022/05/06 05:22:23;;;;;;;;;;;13.50;81.50;;;;;;5084156;28;20142;-71
2022/05/06 05:24:48;;;;;;;;;;;13.50;81.20;;;;;;5103067;28;19908;-71
2022/05/06 05:27:14;;;;;;;;;;;13.50;81.40;;;;;;5102803;28;19972;-72
2022/05/06 05:29:41;;;;;;;;;;;13.60;81.30;;;;;;5085363;28;20005;-73
2022/05/06 05:32:07;;;;;;;;;;;13.60;80.80;;;;;;5086143;28;20177;-73
2022/05/06 05:34:32;;;;;;;;;;;13.60;80.60;;;;;;5076296;28;19914;-75
2022/05/06 05:36:58;;;;;;;;;;;13.70;80.90;;;;;;5102455;28;19987;-73
2022/05/06 05:39:24;;;;;;;;;;;13.70;80.00;;;;;;5102730;28;19908;-75
2022/05/06 05:41:50;;;;;;;;;;;13.80;79.90;;;;;;5101257;28;19908;-71
2022/05/06 05:49:44;;;;;;;;;;;13.90;78.40;;;;;;5102096;28;20252;-74
2022/05/06 05:52:10;;;;;;;;;;;14.00;78.30;;;;;;5100863;28;19943;-72
2022/05/06 05:54:36;;;;;;;;;;;14.00;78.00;;;;;;5097792;28;20110;-72
2022/05/06 05:57:03;;;;;;;;;;;14.10;77.60;;;;;;5102861;28;20170;-72
2022/05/06 05:59:29;;;;;;;;;;;14.10;77.30;;;;;;5067940;28;20258;-71
2022/05/06 06:01:54;;;;;;;;;;;14.20;77.10;;;;;;5101793;28;19908;-71
2022/05/06 06:04:20;;;;;;;;;;;14.30;77.00;;;;;;5067943;28;19909;-71
2022/05/06 06:06:46;;;;;;;;;;;14.40;76.00;;;;;;5101110;28;19974;-72
2022/05/06 06:09:12;;;;;;;;;;;14.40;75.10;;;;;;5084568;28;20089;-71
2022/05/06 06:11:37;;;;;;;;;;;14.50;74.80;;;;;;5101693;28;19955;-73
2022/05/06 06:14:03;;;;;;;;;;;14.50;75.10;;;;;;5101843;28;20301;-71
2022/05/06 06:16:29;;;;;;;;;;;14.60;74.90;;;;;;5101646;28;19913;-72
2022/05/06 06:18:58;;;;;;;;;;;14.60;74.80;;;;;;5084708;28;19984;-72
2022/05/06 06:21:27;;;;;;;;;;;14.70;74.40;;;;;;5067717;28;19915;-73
2022/05/06 06:23:52;;;;;;;;;;;14.80;73.90;;;;;;5084506;28;19908;-73
2022/05/06 06:26:18;;;;;;;;;;;14.80;73.00;;;;;;5101925;28;20084;-70
2022/05/06 06:28:44;;;;;;;;;;;14.90;72.60;;;;;;5102837;28;19932;-72
2022/05/06 06:31:09;;;;;;;;;;;14.80;71.70;;;;;;5101734;28;19908;-73
2022/05/06 06:33:38;;;;;;;;;;;14.80;72.40;;;;;;5084569;28;19946;-70
2022/05/06 06:36:04;;;;;;;;;;;14.70;72.60;;;;;;5067965;28;19910;-69
2022/05/06 06:38:31;;;;;;;;;;;14.70;73.30;;;;;;5102611;28;19961;-69
2022/05/06 06:40:56;;;;;;;;;;;14.70;73.70;;;;;;5103583;28;19975;-72
2022/05/06 06:43:22;;;;;;;;;;;14.80;73.40;;;;;;5079203;28;19941;-71
2022/05/06 06:45:48;;;;;;;;;;;14.80;73.70;;;;;;5105990;28;19946;-76
2022/05/06 06:48:13;;;;;;;;;;;14.80;73.30;;;;;;5104777;28;20115;-76
2022/05/06 06:50:39;;;;;;;;;;;14.80;73.10;;;;;;5094122;28;19908;-76
2022/05/06 06:53:05;;;;;;;;;;;14.90;72.90;;;;;;5079021;28;19969;-77
2022/05/06 06:55:31;;;;;;;;;;;14.90;72.60;;;;;;5070339;28;20200;-77
2022/05/06 06:57:57;;;;;;;;;;;15.00;71.70;;;;;;5088133;28;19916;-77
2022/05/06 07:00:23;;;;;;;;;;;15.10;71.30;;;;;;5105857;28;19908;-77
2022/05/06 07:02:49;;;;;;;;;;;15.10;71.10;;;;;;5086821;28;20084;-76
2022/05/06 07:05:15;;;;;;;;;;;15.20;70.50;;;;;;5087823;28;19912;-68
2022/05/06 07:13:11;;;;;;;;;;;15.40;69.00;;;;;;5105329;28;19945;-70
2022/05/06 07:15:36;;;;;;;;;;;15.50;68.70;;;;;;5104694;28;19908;-69
2022/05/06 07:18:02;;;;;;;;;;;15.50;68.50;;;;;;5105164;28;19919;-69
2022/05/06 07:20:28;;;;;;;;;;;15.50;69.20;;;;;;5102376;28;19967;-68
2022/05/06 07:22:54;;;;;;;;;;;15.50;69.20;;;;;;5091012;28;19909;-73
2022/05/06 07:25:19;;;;;;;;;;;15.60;69.00;;;;;;5102994;28;19909;-72
2022/05/06 07:27:45;;;;;;;;;;;15.70;68.70;;;;;;5105037;28;19908;-72
2022/05/06 07:30:11;;;;;;;;;;;15.80;67.70;;;;;;5103828;28;20006;-72
2022/05/06 07:32:39;;;;;;;;;;;15.80;67.70;;;;;;5103357;28;19908;-75
2022/05/06 07:35:06;;;;;;;;;;;15.90;68.10;;;;;;5086930;28;19911;-71
2022/05/06 07:37:35;;;;;;;;;;;16.00;67.20;;;;;;5104781;28;20119;-71
2022/05/06 07:40:04;;;;;;;;;;;16.00;67.50;;;;;;5104429;28;19908;-74
2022/05/06 07:42:33;;;;;;;;;;;16.10;66.60;;;;;;5102843;28;19916;-73
2022/05/06 07:44:59;;;;;;;;;;;16.20;66.90;;;;;;5104847;28;19939;-70
2022/05/06 07:47:25;;;;;;;;;;;16.20;65.30;;;;;;5086697;28;19976;-73
2022/05/06 07:49:51;;;;;;;;;;;16.30;64.40;;;;;;5104452;28;19914;-72
2022/05/06 07:52:17;;;;;;;;;;;16.30;65.10;;;;;;5096179;28;20015;-73
2022/05/06 07:54:42;;;;;;;;;;;16.50;65.20;;;;;;5076586;28;19954;-72
2022/05/06 07:57:08;;;;;;;;;;;16.50;64.60;;;;;;5103433;28;19912;-73
2022/05/06 07:59:34;;;;;;;;;;;16.50;64.60;;;;;;5086291;28;20157;-70
2022/05/06 08:04:48;;;;;;;;;;;16.60;64.50;;;;;;5104146;28;19954;-74
2022/05/06 08:07:14;;;;;;;;;;;16.70;64.50;;;;;;5104323;28;19912;-76
2022/05/06 08:09:40;;;;;;;;;;;16.70;64.50;;;;;;5084981;28;19915;-76
2022/05/06 08:12:07;;;;;;;;;;;16.80;64.40;;;;;;5068676;28;19908;-75
2022/05/06 08:14:32;;;;;;;;;;;16.90;63.00;;;;;;5086377;28;19923;-74
2022/05/06 08:16:59;;;;;;;;;;;16.90;63.60;;;;;;5085749;28;19912;-74
2022/05/06 08:19:25;;;;;;;;;;;16.90;62.80;;;;;;5086696;28;19954;-72
2022/05/06 08:21:51;;;;;;;;;;;16.90;62.90;;;;;;5098852;23;19921;-71
2022/05/06 08:24:17;;;;;;;;;;;17.00;62.70;;;;;;5059195;28;20132;-70
2022/05/06 08:26:43;;;;;;;;;;;17.10;61.40;;;;;;5063430;28;19984;-70
2022/05/06 08:29:09;;;;;;;;;;;17.10;62.00;;;;;;5058407;28;20112;-70
2022/05/06 08:31:37;;;;;;;;;;;17.20;61.40;;;;;;5048807;28;19936;-70
2022/05/06 08:34:10;;;;;;;;;;;17.20;60.60;;;;;;5040897;28;20180;-70
2022/05/06 08:36:36;;;;;;;;;;;17.20;61.60;;;;;;5041050;28;19936;-71
2022/05/06 08:39:03;;;;;;;;;;;17.20;62.90;;;;;;5041093;28;19955;-70
2022/05/06 08:41:29;;;;;;;;;;;17.30;62.30;;;;;;5039892;28;19959;-70
2022/05/06 08:43:56;;;;;;;;;;;17.20;63.20;;;;;;5041675;28;19931;-69
2022/05/06 08:51:50;;;;;;;;;;;17.20;61.20;;;;;;5041116;28;19916;-70
2022/05/06 08:54:17;;;;;;;;;;;17.40;60.80;;;;;;5030957;28;19917;-70
2022/05/06 08:56:43;;;;;;;;;;;17.50;61.30;;;;;;5026662;28;20000;-67
2022/05/06 08:59:08;;;;;;;;;;;17.50;60.70;;;;;;5022468;28;19913;-69
2022/05/06 09:01:34;;;;;;;;;;;17.50;60.80;;;;;;5020917;28;19909;-68
2022/05/06 09:04:00;;;;;;;;;;;17.70;60.90;;;;;;5020551;28;19909;-67
2022/05/06 09:06:26;;;;;;;;;;;17.80;61.50;;;;;;5021718;28;20388;-68
2022/05/06 09:08:53;;;;;;;;;;;17.80;60.50;;;;;;5020650;28;19916;-68
2022/05/06 09:12:40;;;;;;;;;;;17.90;60.40;;;;;;5019877;28;20211;-69
2022/05/06 09:14:06;;;;;;;;;;;18.00;60.20;;;;;;5021811;28;19917;-68
2022/05/06 09:16:41;;;;;;;;;;;18.30;57.70;;;;;;5003207;28;19956;-68
2022/05/06 09:19:23;;;;;;;;;;;18.30;58.20;;;;;;5021772;28;19933;-69
2022/05/06 09:22:05;;;;;;;;;;;18.30;59.00;;;;;;5033116;28;19913;-67
2022/05/06 09:24:32;;;;;;;;;;;18.40;56.90;;;;;;5039955;28;19909;-68
2022/05/06 09:27:05;;;;;;;;;;;18.50;56.70;;;;;;5041241;28;19944;-68
2022/05/06 09:29:35;;;;;;;;;;;18.50;56.50;;;;;;5040300;28;20120;-70
2022/05/06 09:32:20;;;;;;;;;;;18.40;57.50;;;;;;5040724;28;20279;-69
2022/05/06 09:34:58;;;;;;;;;;;18.50;59.10;;;;;;5040109;28;19939;-70
2022/05/06 09:37:35;;;;;;;;;;;18.50;58.30;;;;;;5040814;28;20031;-68
2022/05/06 09:40:02;;;;;;;;;;;18.50;57.80;;;;;;5041491;28;19912;-68
2022/05/06 09:42:28;;;;;;;;;;;18.70;58.00;;;;;;5040362;28;19955;-68
2022/05/06 09:44:54;;;;;;;;;;;18.80;57.90;;;;;;5041250;28;19909;-69
2022/05/06 09:47:20;;;;;;;;;;;18.80;56.80;;;;;;5041253;28;19909;-69
2022/05/06 09:49:45;;;;;;;;;;;18.80;56.40;;;;;;5023425;28;19984;-70
2022/05/06 09:52:12;;;;;;;;;;;18.80;55.10;;;;;;5040433;28;19920;-69
2022/05/06 09:54:42;;;;;;;;;;;18.90;56.30;;;;;;5039843;28;19909;-71
2022/05/06 09:57:07;;;;;;;;;;;18.90;56.70;;;;;;5039023;28;20010;-72
2022/05/06 09:59:34;;;;;;;;;;;19.00;54.90;;;;;;5041529;28;20005;-71
2022/05/06 10:02:00;;;;;;;;;;;19.00;54.40;;;;;;5038862;28;19956;-68
2022/05/06 10:04:26;;;;;;;;;;;19.00;55.60;;;;;;5040162;28;20112;-72
2022/05/06 10:06:52;;;;;;;;;;;18.90;55.30;;;;;;5040800;28;19916;-72
2022/05/06 10:09:21;;;;;;;;;;;19.10;56.10;;;;;;5023657;28;19909;-72
2022/05/06 10:11:47;;;;;;;;;;;19.20;55.50;;;;;;5039368;28;20155;-72
2022/05/06 10:14:13;;;;;;;;;;;19.40;54.20;;;;;;5041578;28;19913;-71
2022/05/06 10:16:39;;;;;;;;;;;19.40;53.40;;;;;;5043616;28;19950;-69
2022/05/06 10:19:24;;;;;;;;;;;19.40;52.30;;;;;;5044376;28;19917;-68
2022/05/06 10:21:50;;;;;;;;;;;19.50;54.40;;;;;;5042848;28;19920;-68
2022/05/06 10:24:16;;;;;;;;;;;19.60;52.80;;;;;;5044731;28;19937;-69
2022/05/06 10:26:45;;;;;;;;;;;19.60;52.70;;;;;;5040847;28;19909;-68
2022/05/06 10:32:28;;;;;;;;;;;19.80;52.60;;;;;;5043838;28;19916;-69
2022/05/06 10:35:05;;;;;;;;;;;19.90;52.90;;;;;;5043801;28;19920;-70
2022/05/06 10:37:44;;;;;;;;;;;19.90;53.80;;;;;;5044383;28;19920;-68
2022/05/06 10:40:22;;;;;;;;;;;19.80;52.60;;;;;;5043629;28;20204;-75
2022/05/06 10:42:48;;;;;;;;;;;19.80;53.10;;;;;;5044087;28;19916;-74
2022/05/06 10:45:24;;;;;;;;;;;19.90;53.10;;;;;;5027850;28;19909;-75
2022/05/06 10:47:50;;;;;;;;;;;20.00;53.00;;;;;;5045736;28;19909;-74
2022/05/06 10:50:18;;;;;;;;;;;20.30;53.50;;;;;;5043096;28;19920;-74
2022/05/06 10:52:45;;;;;;;;;;;20.60;52.70;;;;;;5020741;28;19921;-76
2022/05/06 10:55:12;;;;;;;;;;;20.90;50.60;;;;;;5027282;28;19914;-75
2022/05/06 10:57:45;;;;;;;;;;;20.90;51.00;;;;;;5044041;28;19957;-74
2022/05/06 11:00:11;;;;;;;;;;;20.90;51.00;;;;;;5047997;28;19916;-74
2022/05/06 11:02:38;;;;;;;;;;;21.00;51.40;;;;;;5043520;28;19931;-74
2022/05/06 11:05:25;;;;;;;;;;;21.00;51.20;;;;;;5045154;28;19909;-74
2022/05/06 11:07:54;;;;;;;;;;;21.10;49.30;;;;;;5045154;28;19976;-75
2022/05/06 11:10:25;;;;;;;;;;;21.00;50.30;;;;;;5044590;28;19941;-75
2022/05/06 11:12:56;;;;;;;;;;;21.00;49.70;;;;;;5059537;28;20105;-75
2022/05/06 11:15:29;;;;;;;;;;;21.00;49.80;;;;;;5044982;28;19915;-76
2022/05/06 11:17:57;;;;;;;;;;;21.30;49.70;;;;;;5050086;28;19988;-75
2022/05/06 11:20:29;;;;;;;;;;;21.20;50.30;;;;;;5046373;28;19909;-75
2022/05/06 11:22:57;;;;;;;;;;;21.40;50.90;;;;;;5027698;28;20101;-75
2022/05/06 11:25:23;;;;;;;;;;;21.50;49.80;;;;;;5026931;28;19982;-74
2022/05/06 11:27:54;;;;;;;;;;;21.70;49.90;;;;;;5043955;28;19916;-76
2022/05/06 11:30:20;;;;;;;;;;;21.80;48.30;;;;;;5045016;28;19939;-76
2022/05/06 11:32:54;;;;;;;;;;;21.90;47.60;;;;;;5044240;28;19917;-68
2022/05/06 11:35:32;;;;;;;;;;;22.00;49.10;;;;;;5044795;28;19913;-74
2022/05/06 11:37:58;;;;;;;;;;;22.00;47.50;;;;;;5044789;28;19913;-73
2022/05/06 11:40:37;;;;;;;;;;;22.00;47.20;;;;;;5043188;28;20112;-73
2022/05/06 11:43:07;;;;;;;;;;;22.00;46.80;;;;;;5043765;28;20161;-73
2022/05/06 11:48:20;;;;;;;;;;;22.10;46.70;;;;;;5044468;28;19947;-73
2022/05/06 11:50:47;;;;;;;;;;;22.00;48.60;;;;;;5043818;28;19916;-73
2022/05/06 11:53:14;;;;;;;;;;;22.00;47.60;;;;;;5030276;28;20197;-73
2022/05/06 11:55:44;;;;;;;;;;;22.10;46.90;;;;;;5024454;28;20371;-73
2022/05/06 11:58:11;;;;;;;;;;;22.20;47.00;;;;;;5044055;28;20284;-74
2022/05/06 12:00:37;;;;;;;;;;;22.20;46.30;;;;;;5042448;28;19909;-73
2022/05/06 12:03:04;;;;;;;;;;;22.40;45.80;;;;;;5042759;28;19909;-73
2022/05/06 12:05:30;;;;;;;;;;;22.50;46.20;;;;;;5033402;28;19924;-73
2022/05/06 12:07:56;;;;;;;;;;;22.60;46.40;;;;;;5030176;28;19910;-74
2022/05/06 12:10:26;;;;;;;;;;;22.90;46.10;;;;;;5022634;28;19951;-73
2022/05/06 12:12:58;;;;;;;;;;;23.10;45.20;;;;;;5023548;28;19910;-73
2022/05/06 12:15:31;;;;;;;;;;;23.30;44.90;;;;;;5022907;28;19924;-73
2022/05/06 12:18:01;;;;;;;;;;;23.30;45.80;;;;;;5023036;28;19993;-73
2022/05/06 12:20:35;;;;;;;;;;;23.50;46.10;;;;;;5022662;28;19913;-73
2022/05/06 12:23:01;;;;;;;;;;;23.40;44.20;;;;;;5023823;28;19909;-73
2022/05/06 12:25:27;;;;;;;;;;;23.50;44.10;;;;;;5027037;28;19944;-73
2022/05/06 12:28:17;;;;;;;;;;;23.40;44.00;;;;;;5043712;28;20323;-73
2022/05/06 12:30:46;;;;;;;;;;;23.40;44.70;;;;;;5042756;28;19959;-73
2022/05/06 12:33:15;;;;;;;;;;;23.20;44.90;;;;;;5043556;28;19909;-73
2022/05/06 12:35:56;;;;;;;;;;;22.70;45.70;;;;;;5040623;28;20164;-73
2022/05/06 12:38:23;;;;;;;;;;;22.60;46.90;;;;;;5032351;28;19913;-73
2022/05/06 12:40:50;;;;;;;;;;;23.00;46.10;;;;;;5022865;28;20120;-73
2022/05/06 12:43:15;;;;;;;;;;;23.00;45.90;;;;;;5006269;28;19985;-73
2022/05/06 12:46:00;;;;;;;;;;;22.90;45.70;;;;;;5023625;28;19932;-73
2022/05/06 12:51:10;;;;;;;;;;;22.90;46.50;;;;;;5034492;28;19916;-73
2022/05/06 12:53:36;;;;;;;;;;;22.90;45.20;;;;;;5043290;28;19983;-73
2022/05/06 12:56:02;;;;;;;;;;;22.80;44.50;;;;;;5042417;28;19980;-73
2022/05/06 12:58:28;;;;;;;;;;;22.80;44.30;;;;;;5043078;28;19913;-74
2022/05/06 13:00:57;;;;;;;;;;;23.00;44.90;;;;;;5024651;28;20453;-73
2022/05/06 13:03:23;;;;;;;;;;;23.20;45.20;;;;;;5042054;28;20277;-73
2022/05/06 13:05:49;;;;;;;;;;;23.70;45.10;;;;;;5042931;28;19909;-73
2022/05/06 13:08:15;;;;;;;;;;;24.00;44.00;;;;;;5043051;28;19909;-73
2022/05/06 13:10:41;;;;;;;;;;;24.40;42.90;;;;;;5042152;28;19931;-73
2022/05/06 13:13:06;;;;;;;;;;;24.70;42.80;;;;;;5042522;28;19913;-74
2022/05/06 13:15:32;;;;;;;;;;;24.90;42.20;;;;;;5043177;28;19916;-73
2022/05/06 13:17:58;;;;;;;;;;;25.20;41.40;;;;;;5042835;28;19921;-73
2022/05/06 13:20:24;;;;;;;;;;;25.10;41.30;;;;;;5037653;28;19917;-74
2022/05/06 13:22:49;;;;;;;;;;;24.90;42.00;;;;;;5038393;28;19909;-73
2022/05/06 13:25:15;;;;;;;;;;;24.70;42.90;;;;;;5034949;28;20003;-73
2022/05/06 13:27:41;;;;;;;;;;;24.90;41.80;;;;;;5042226;28;20157;-73
2022/05/06 13:30:09;;;;;;;;;;;24.50;42.80;;;;;;5041882;28;19912;-73
2022/05/06 13:32:35;;;;;;;;;;;24.60;41.80;;;;;;5038528;28;19913;-73
2022/05/06 13:35:01;;;;;;;;;;;24.70;42.00;;;;;;5032359;28;19956;-73
2022/05/06 13:37:27;;;;;;;;;;;24.90;41.00;;;;;;5026884;28;19920;-73
2022/05/06 13:39:52;;;;;;;;;;;24.90;40.70;;;;;;5022927;28;19910;-73
2022/05/06 13:42:18;;;;;;;;;;;25.10;41.10;;;;;;5021854;28;19980;-73
2022/05/06 13:44:44;;;;;;;;;;;25.40;41.20;;;;;;5022918;28;19910;-73
2022/05/06 13:47:09;;;;;;;;;;;25.30;40.60;;;;;;5023004;28;19937;-71
2022/05/06 13:49:35;;;;;;;;;;;25.20;42.20;;;;;;5025501;28;20144;-68
2022/05/06 13:52:01;;;;;;;;;;;25.20;41.20;;;;;;5027354;28;20139;-69
2022/05/06 13:54:27;;;;;;;;;;;25.60;42.60;;;;;;5034759;28;20107;-67
2022/05/06 13:59:38;;;;;;;;;;;25.50;41.00;;;;;;5046746;28;19916;-67
2022/05/06 14:02:03;;;;;;;;;;;25.20;40.60;;;;;;5045287;28;19932;-67
2022/05/06 14:04:29;;;;;;;;;;;24.50;42.30;;;;;;5046455;28;19975;-68
2022/05/06 14:06:55;;;;;;;;;;;24.10;41.20;;;;;;5035676;28;19909;-67
2022/05/06 14:09:20;;;;;;;;;;;23.90;43.20;;;;;;5029113;28;19910;-68
2022/05/06 14:11:46;;;;;;;;;;;23.60;43.50;;;;;;5025263;28;19909;-68
2022/05/06 14:14:12;;;;;;;;;;;23.20;43.90;;;;;;5026362;28;19909;-68
2022/05/06 14:16:37;;;;;;;;;;;23.10;45.50;;;;;;5025954;28;19914;-68
2022/05/06 14:19:03;;;;;;;;;;;23.00;46.20;;;;;;5026512;28;19917;-67
2022/05/06 14:21:29;;;;;;;;;;;22.70;45.30;;;;;;5025562;28;19913;-67
2022/05/06 14:23:56;;;;;;;;;;;22.70;45.70;;;;;;5026097;28;20176;-68
2022/05/06 14:26:23;;;;;;;;;;;22.60;46.40;;;;;;5035711;28;19909;-67
2022/05/06 14:28:49;;;;;;;;;;;22.50;47.30;;;;;;5046016;28;20197;-68
2022/05/06 14:31:15;;;;;;;;;;;22.40;46.70;;;;;;5045114;28;19936;-67
2022/05/06 14:33:41;;;;;;;;;;;22.40;46.50;;;;;;5045734;28;20086;-67
2022/05/06 14:36:07;;;;;;;;;;;22.20;46.30;;;;;;5045380;28;19916;-66
2022/05/06 14:38:32;;;;;;;;;;;22.30;46.40;;;;;;5045371;28;19913;-66
2022/05/06 14:40:58;;;;;;;;;;;22.20;48.00;;;;;;5044717;28;19928;-66
2022/05/06 14:43:24;;;;;;;;;;;22.20;46.40;;;;;;5045841;28;19948;-67
2022/05/06 14:45:49;;;;;;;;;;;22.20;47.30;;;;;;5045556;28;19916;-68
2022/05/06 14:48:15;;;;;;;;;;;22.30;48.30;;;;;;5045631;28;19924;-68
2022/05/06 14:50:41;;;;;;;;;;;22.40;46.90;;;;;;5044541;28;19917;-66
2022/05/06 14:53:07;;;;;;;;;;;22.50;46.40;;;;;;5045690;28;19917;-68
2022/05/06 14:55:33;;;;;;;;;;;22.50;46.00;;;;;;5045002;28;19917;-67
2022/05/06 14:57:59;;;;;;;;;;;22.30;46.90;;;;;;5045178;28;20086;-66